sensor_id;sensor_type;location;lat;lon;timestamp;pressure;altitude;pressure_sealevel;temperature;humidity
59443;BME280;45247;47.466;19.004;2022-09-03T00:00:53;99962.84;;;11.42;100.00
59443;BME280;45247;47.466;19.004;2022-09-03T00:03:26;99971.72;;;11.41;100.00
59443;BME280;45247;47.466;19.004;2022-09-03T00:06:05;99964.66;;;11.42;100.00
59443;BME280;45247;47.466;19.004;2022-09-03T00:08:39;99966.56;;;11.40;100.00
59443;BME280;45247;47.466;19.004;2022-09-03T00:11:17;99976.53;;;11.35;100.00
59443;BME280;45247;47.466;19.004;2022-09-03T00:13:51;99960.97;;;11.30;100.00
59443;BME280;45247;47.466;19.004;2022-09-03T00:16:25;99966.47;;;11.27;100.00
59443;BME280;45247;47.466;19.004;2022-09-03T00:18:59;99965.00;;;11.21;100.00
59443;BME280;45247;47.466;19.004;2022-09-03T00:21:36;99975.50;;;11.23;100.00
59443;BME280;45247;47.466;19.004;2022-09-03T00:24:08;99972.75;;;11.24;100.00
59443;BME280;45247;47.466;19.004;2022-09-03T00:26:45;99967.59;;;11.23;100.00
59443;BME280;45247;47.466;19.004;2022-09-03T00:29:15;99968.50;;;11.22;100.00
59443;BME280;45247;47.466;19.004;2022-09-03T00:31:48;99971.34;;;11.19;100.00
59443;BME280;45247;47.466;19.004;2022-09-03T00:34:21;99962.00;;;11.13;100.00
59443;BME280;45247;47.466;19.004;2022-09-03T00:36:51;99969.28;;;11.10;100.00
59443;BME280;45247;47.466;19.004;2022-09-03T00:39:22;99965.28;;;11.02;100.00
59443;BME280;45247;47.466;19.004;2022-09-03T00:42:07;99962.84;;;10.99;100.00
59443;BME280;45247;47.466;19.004;2022-09-03T00:44:50;99973.97;;;11.04;100.00
59443;BME280;45247;47.466;19.004;2022-09-03T00:47:26;99968.97;;;11.00;100.00
59443;BME280;45247;47.466;19.004;2022-09-03T00:50:04;99976.31;;;10.95;100.00
59443;BME280;45247;47.466;19.004;2022-09-03T00:52:44;99960.00;;;10.88;100.00
59443;BME280;45247;47.466;19.004;2022-09-03T00:55:24;99958.66;;;10.81;100.00
59443;BME280;45247;47.466;19.004;2022-09-03T00:58:09;99966.69;;;10.80;100.00
59443;BME280;45247;47.466;19.004;2022-09-03T01:00:41;99970.84;;;10.84;100.00
59443;BME280;45247;47.466;19.004;2022-09-03T01:03:11;99975.91;;;10.87;100.00
59443;BME280;45247;47.466;19.004;2022-09-03T01:06:00;99975.00;;;10.88;100.00
59443;BME280;45247;47.466;19.004;2022-09-03T01:08:54;99972.16;;;10.91;100.00
59443;BME280;45247;47.466;19.004;2022-09-03T01:11:54;99977.44;;;10.91;100.00
59443;BME280;45247;47.466;19.004;2022-09-03T01:14:38;99975.84;;;10.88;100.00
59443;BME280;45247;47.466;19.004;2022-09-03T01:17:17;99974.66;;;10.78;100.00
59443;BME280;45247;47.466;19.004;2022-09-03T01:20:06;99981.84;;;10.76;100.00
59443;BME280;45247;47.466;19.004;2022-09-03T01:23:13;99983.66;;;10.75;100.00
59443;BME280;45247;47.466;19.004;2022-09-03T01:25:52;99989.84;;;10.74;100.00
59443;BME280;45247;47.466;19.004;2022-09-03T01:28:41;99997.84;;;10.73;100.00
59443;BME280;45247;47.466;19.004;2022-09-03T01:31:18;99998.22;;;10.67;100.00
59443;BME280;45247;47.466;19.004;2022-09-03T01:33:58;99993.13;;;10.64;100.00
59443;BME280;45247;47.466;19.004;2022-09-03T01:36:37;99990.66;;;10.61;100.00
59443;BME280;45247;47.466;19.004;2022-09-03T01:39:14;99994.25;;;10.60;100.00
59443;BME280;45247;47.466;19.004;2022-09-03T01:41:54;99998.56;;;10.61;100.00
59443;BME280;45247;47.466;19.004;2022-09-03T01:47:58;99986.59;;;10.55;100.00
59443;BME280;45247;47.466;19.004;2022-09-03T01:50:38;99993.38;;;10.59;100.00
59443;BME280;45247;47.466;19.004;2022-09-03T01:53:12;99983.78;;;10.58;100.00
59443;BME280;45247;47.466;19.004;2022-09-03T01:55:56;99991.09;;;10.53;100.00
59443;BME280;45247;47.466;19.004;2022-09-03T01:58:29;99988.44;;;10.53;100.00
59443;BME280;45247;47.466;19.004;2022-09-03T02:01:09;99991.09;;;10.53;100.00
59443;BME280;45247;47.466;19.004;2022-09-03T02:03:44;99977.94;;;10.37;100.00
59443;BME280;45247;47.466;19.004;2022-09-03T02:06:14;99996.72;;;10.47;100.00
59443;BME280;45247;47.466;19.004;2022-09-03T02:08:46;99990.88;;;10.42;100.00
59443;BME280;45247;47.466;19.004;2022-09-03T02:11:14;99999.38;;;10.47;100.00
59443;BME280;45247;47.466;19.004;2022-09-03T02:13:44;100002.97;;;10.46;100.00
59443;BME280;45247;47.466;19.004;2022-09-03T02:16:18;100004.41;;;10.36;100.00
59443;BME280;45247;47.466;19.004;2022-09-03T02:18:50;99991.47;;;10.31;100.00
59443;BME280;45247;47.466;19.004;2022-09-03T02:21:22;100006.47;;;10.31;100.00
59443;BME280;45247;47.466;19.004;2022-09-03T02:23:51;99996.94;;;10.28;100.00
59443;BME280;45247;47.466;19.004;2022-09-03T02:26:22;100000.66;;;10.24;100.00
59443;BME280;45247;47.466;19.004;2022-09-03T02:28:52;100006.63;;;10.27;100.00
59443;BME280;45247;47.466;19.004;2022-09-03T02:31:22;100005.06;;;10.23;100.00
59443;BME280;45247;47.466;19.004;2022-09-03T02:33:51;100000.03;;;10.19;100.00
59443;BME280;45247;47.466;19.004;2022-09-03T02:36:23;100002.53;;;10.22;100.00
59443;BME280;45247;47.466;19.004;2022-09-03T02:38:53;100005.94;;;10.24;100.00
59443;BME280;45247;47.466;19.004;2022-09-03T02:41:22;99998.94;;;10.23;100.00
59443;BME280;45247;47.466;19.004;2022-09-03T02:43:58;100000.50;;;10.27;100.00
59443;BME280;45247;47.466;19.004;2022-09-03T02:46:33;100002.03;;;10.31;100.00
59443;BME280;45247;47.466;19.004;2022-09-03T02:49:03;100003.75;;;10.32;100.00
59443;BME280;45247;47.466;19.004;2022-09-03T02:51:32;99994.31;;;10.28;100.00
59443;BME280;45247;47.466;19.004;2022-09-03T02:54:01;100002.53;;;10.38;100.00
59443;BME280;45247;47.466;19.004;2022-09-03T02:56:29;99999.97;;;10.36;100.00
59443;BME280;45247;47.466;19.004;2022-09-03T02:58:57;100006.78;;;10.40;100.00
59443;BME280;45247;47.466;19.004;2022-09-03T03:01:26;100002.44;;;10.39;100.00
59443;BME280;45247;47.466;19.004;2022-09-03T03:03:59;99998.47;;;10.32;100.00
59443;BME280;45247;47.466;19.004;2022-09-03T03:06:27;99998.28;;;10.35;100.00
59443;BME280;45247;47.466;19.004;2022-09-03T03:08:56;100008.09;;;10.33;100.00
59443;BME280;45247;47.466;19.004;2022-09-03T03:11:24;100010.03;;;10.30;100.00
59443;BME280;45247;47.466;19.004;2022-09-03T03:13:53;100002.38;;;10.25;100.00
59443;BME280;45247;47.466;19.004;2022-09-03T03:16:21;100007.50;;;10.28;100.00
59443;BME280;45247;47.466;19.004;2022-09-03T03:18:49;100007.50;;;10.28;100.00
59443;BME280;45247;47.466;19.004;2022-09-03T03:21:19;99995.38;;;10.24;100.00
59443;BME280;45247;47.466;19.004;2022-09-03T03:23:47;100008.56;;;10.24;100.00
59443;BME280;45247;47.466;19.004;2022-09-03T03:26:18;100010.00;;;10.14;100.00
59443;BME280;45247;47.466;19.004;2022-09-03T03:28:47;100016.31;;;10.11;100.00
59443;BME280;45247;47.466;19.004;2022-09-03T03:31:18;100010.38;;;10.08;100.00
59443;BME280;45247;47.466;19.004;2022-09-03T03:33:50;100021.84;;;10.07;100.00
59443;BME280;45247;47.466;19.004;2022-09-03T03:36:21;100015.63;;;10.08;100.00
59443;BME280;45247;47.466;19.004;2022-09-03T03:38:52;100026.03;;;10.11;100.00
59443;BME280;45247;47.466;19.004;2022-09-03T03:41:23;100024.50;;;10.07;100.00
59443;BME280;45247;47.466;19.004;2022-09-03T03:43:52;100020.47;;;9.99;100.00
59443;BME280;45247;47.466;19.004;2022-09-03T03:46:21;100006.63;;;9.96;100.00
59443;BME280;45247;47.466;19.004;2022-09-03T03:48:51;100027.44;;;10.00;100.00
59443;BME280;45247;47.466;19.004;2022-09-03T03:51:21;100030.50;;;9.93;100.00
59443;BME280;45247;47.466;19.004;2022-09-03T03:53:53;100023.44;;;9.93;100.00
59443;BME280;45247;47.466;19.004;2022-09-03T03:56:24;100028.97;;;9.89;100.00
59443;BME280;45247;47.466;19.004;2022-09-03T03:58:53;100021.41;;;9.83;100.00
59443;BME280;45247;47.466;19.004;2022-09-03T04:01:24;100031.44;;;9.92;100.00
59443;BME280;45247;47.466;19.004;2022-09-03T04:03:54;100033.97;;;9.93;100.00
59443;BME280;45247;47.466;19.004;2022-09-03T04:06:23;100034.19;;;9.90;100.00
59443;BME280;45247;47.466;19.004;2022-09-03T04:08:52;100036.47;;;9.96;100.00
59443;BME280;45247;47.466;19.004;2022-09-03T04:11:21;100040.78;;;9.97;100.00
59443;BME280;45247;47.466;19.004;2022-09-03T04:13:51;100044.06;;;10.02;100.00
59443;BME280;45247;47.466;19.004;2022-09-03T04:16:21;100049.97;;;10.06;100.00
59443;BME280;45247;47.466;19.004;2022-09-03T04:18:50;100049.81;;;10.09;100.00
59443;BME280;45247;47.466;19.004;2022-09-03T04:21:20;100047.13;;;10.11;100.00
59443;BME280;45247;47.466;19.004;2022-09-03T04:23:51;100049.97;;;10.06;100.00
59443;BME280;45247;47.466;19.004;2022-09-03T04:26:21;100032.97;;;9.96;100.00
59443;BME280;45247;47.466;19.004;2022-09-03T04:28:49;100045.75;;;10.03;100.00
59443;BME280;45247;47.466;19.004;2022-09-03T04:31:19;100027.88;;;9.93;100.00
59443;BME280;45247;47.466;19.004;2022-09-03T04:33:49;100049.06;;;10.07;100.00
59443;BME280;45247;47.466;19.004;2022-09-03T04:36:19;100049.50;;;10.15;100.00
59443;BME280;45247;47.466;19.004;2022-09-03T04:38:50;100053.88;;;10.32;100.00
59443;BME280;45247;47.466;19.004;2022-09-03T04:41:21;100052.16;;;10.47;100.00
59443;BME280;45247;47.466;19.004;2022-09-03T04:43:51;100061.03;;;10.76;100.00
59443;BME280;45247;47.466;19.004;2022-09-03T04:46:21;100057.44;;;12.09;100.00
59443;BME280;45247;47.466;19.004;2022-09-03T04:48:50;100051.72;;;13.36;100.00
59443;BME280;45247;47.466;19.004;2022-09-03T04:51:20;100056.19;;;14.23;100.00
59443;BME280;45247;47.466;19.004;2022-09-03T04:53:54;100052.53;;;15.20;100.00
59443;BME280;45247;47.466;19.004;2022-09-03T04:56:25;100037.84;;;16.06;100.00
59443;BME280;45247;47.466;19.004;2022-09-03T04:58:55;100048.00;;;17.10;100.00
59443;BME280;45247;47.466;19.004;2022-09-03T05:01:25;100042.03;;;17.99;100.00
59443;BME280;45247;47.466;19.004;2022-09-03T05:03:54;100043.59;;;19.10;100.00
59443;BME280;45247;47.466;19.004;2022-09-03T05:06:23;100045.53;;;19.18;100.00
59443;BME280;45247;47.466;19.004;2022-09-03T05:08:54;100036.31;;;20.24;100.00
59443;BME280;45247;47.466;19.004;2022-09-03T05:11:24;100040.97;;;20.49;100.00
59443;BME280;45247;47.466;19.004;2022-09-03T05:13:54;100027.88;;;21.70;100.00
59443;BME280;45247;47.466;19.004;2022-09-03T05:16:24;100029.03;;;22.52;97.24
59443;BME280;45247;47.466;19.004;2022-09-03T05:18:56;100034.66;;;23.32;83.36
59443;BME280;45247;47.466;19.004;2022-09-03T05:21:25;100036.31;;;23.41;80.35
59443;BME280;45247;47.466;19.004;2022-09-03T05:23:55;100033.41;;;24.15;71.46
59443;BME280;45247;47.466;19.004;2022-09-03T05:26:26;100039.25;;;23.87;73.95
59443;BME280;45247;47.466;19.004;2022-09-03T05:28:55;100030.47;;;24.33;70.96
59443;BME280;45247;47.466;19.004;2022-09-03T05:31:25;100025.97;;;25.02;66.39
59443;BME280;45247;47.466;19.004;2022-09-03T05:33:55;100031.81;;;25.14;67.13
59443;BME280;45247;47.466;19.004;2022-09-03T05:36:27;100025.84;;;26.01;60.70
59443;BME280;45247;47.466;19.004;2022-09-03T05:38:58;100028.19;;;26.25;60.18
59443;BME280;45247;47.466;19.004;2022-09-03T05:41:27;100025.88;;;26.22;60.12
59443;BME280;45247;47.466;19.004;2022-09-03T05:43:56;100030.97;;;26.89;57.36
59443;BME280;45247;47.466;19.004;2022-09-03T05:46:26;100033.28;;;26.86;56.95
59443;BME280;45247;47.466;19.004;2022-09-03T05:48:58;100030.91;;;27.82;53.03
59443;BME280;45247;47.466;19.004;2022-09-03T05:51:27;100035.69;;;27.52;52.91
59443;BME280;45247;47.466;19.004;2022-09-03T05:53:57;100038.81;;;28.25;51.73
59443;BME280;45247;47.466;19.004;2022-09-03T05:56:28;100042.06;;;28.00;51.75
59443;BME280;45247;47.466;19.004;2022-09-03T05:58:58;100039.94;;;27.61;53.72
59443;BME280;45247;47.466;19.004;2022-09-03T06:01:29;100041.78;;;27.32;55.49
59443;BME280;45247;47.466;19.004;2022-09-03T06:03:58;100045.31;;;27.05;56.46
59443;BME280;45247;47.466;19.004;2022-09-03T06:06:29;100038.22;;;26.61;59.24
59443;BME280;45247;47.466;19.004;2022-09-03T06:09:00;100036.53;;;27.52;56.26
59443;BME280;45247;47.466;19.004;2022-09-03T06:11:29;100036.94;;;27.00;57.27
59443;BME280;45247;47.466;19.004;2022-09-03T06:13:59;100036.44;;;27.39;56.46
59443;BME280;45247;47.466;19.004;2022-09-03T06:16:28;100033.75;;;25.20;64.29
59443;BME280;45247;47.466;19.004;2022-09-03T06:18:58;100031.09;;;26.23;61.70
59443;BME280;45247;47.466;19.004;2022-09-03T06:21:26;100034.03;;;26.80;58.68
59443;BME280;45247;47.466;19.004;2022-09-03T06:23:56;100035.75;;;27.09;58.56
59443;BME280;45247;47.466;19.004;2022-09-03T06:26:27;100028.81;;;27.21;55.54
59443;BME280;45247;47.466;19.004;2022-09-03T06:28:56;100034.72;;;26.67;60.49
59443;BME280;45247;47.466;19.004;2022-09-03T06:31:25;100037.13;;;26.40;61.07
59443;BME280;45247;47.466;19.004;2022-09-03T06:33:54;100028.75;;;26.35;62.80
59443;BME280;45247;47.466;19.004;2022-09-03T06:36:29;100029.31;;;26.67;60.87
59443;BME280;45247;47.466;19.004;2022-09-03T06:38:57;100023.06;;;26.30;59.53
59443;BME280;45247;47.466;19.004;2022-09-03T06:41:30;100021.94;;;26.39;59.92
59443;BME280;45247;47.466;19.004;2022-09-03T06:44:00;100020.31;;;25.64;62.12
59443;BME280;45247;47.466;19.004;2022-09-03T06:46:30;100021.31;;;25.34;64.90
59443;BME280;45247;47.466;19.004;2022-09-03T06:48:59;100022.34;;;25.47;63.80
59443;BME280;45247;47.466;19.004;2022-09-03T06:51:28;100020.47;;;24.72;66.25
59443;BME280;45247;47.466;19.004;2022-09-03T06:53:59;100025.63;;;23.81;72.09
59443;BME280;45247;47.466;19.004;2022-09-03T06:56:29;100027.66;;;24.80;68.53
59443;BME280;45247;47.466;19.004;2022-09-03T06:59:06;100020.88;;;24.61;66.79
59443;BME280;45247;47.466;19.004;2022-09-03T07:01:35;100033.22;;;24.79;64.70
59443;BME280;45247;47.466;19.004;2022-09-03T07:04:11;100029.44;;;24.65;64.18
59443;BME280;45247;47.466;19.004;2022-09-03T07:06:42;100031.13;;;24.04;67.56
59443;BME280;45247;47.466;19.004;2022-09-03T07:09:11;100025.06;;;24.33;66.72
59443;BME280;45247;47.466;19.004;2022-09-03T07:11:42;100027.28;;;24.37;64.65
59443;BME280;45247;47.466;19.004;2022-09-03T07:14:15;100029.78;;;23.99;67.38
59443;BME280;45247;47.466;19.004;2022-09-03T07:16:45;100034.63;;;23.40;72.67
59443;BME280;45247;47.466;19.004;2022-09-03T07:19:14;100030.19;;;23.64;71.67
59443;BME280;45247;47.466;19.004;2022-09-03T07:21:42;100027.19;;;23.59;73.03
59443;BME280;45247;47.466;19.004;2022-09-03T07:24:16;100028.44;;;23.95;71.82
59443;BME280;45247;47.466;19.004;2022-09-03T07:26:46;100027.25;;;23.98;72.67
59443;BME280;45247;47.466;19.004;2022-09-03T07:29:15;100027.38;;;24.13;70.03
59443;BME280;45247;47.466;19.004;2022-09-03T07:31:49;100022.28;;;23.62;67.63
59443;BME280;45247;47.466;19.004;2022-09-03T07:34:21;100025.25;;;23.92;70.08
59443;BME280;45247;47.466;19.004;2022-09-03T07:36:52;100024.75;;;23.88;70.50
59443;BME280;45247;47.466;19.004;2022-09-03T07:39:20;100026.66;;;23.80;71.71
59443;BME280;45247;47.466;19.004;2022-09-03T07:41:50;100035.22;;;23.83;71.76
59443;BME280;45247;47.466;19.004;2022-09-03T07:44:20;100031.56;;;23.68;69.34
59443;BME280;45247;47.466;19.004;2022-09-03T07:46:48;100036.31;;;23.41;75.57
59443;BME280;45247;47.466;19.004;2022-09-03T07:49:18;100030.38;;;23.70;74.35
59443;BME280;45247;47.466;19.004;2022-09-03T07:51:48;100042.41;;;23.19;76.94
59443;BME280;45247;47.466;19.004;2022-09-03T07:54:20;100041.69;;;22.76;76.30
59443;BME280;45247;47.466;19.004;2022-09-03T07:56:51;100032.31;;;23.13;77.72
59443;BME280;45247;47.466;19.004;2022-09-03T07:59:19;100032.44;;;23.44;76.40
59443;BME280;45247;47.466;19.004;2022-09-03T08:01:48;100035.94;;;23.61;75.76
59443;BME280;45247;47.466;19.004;2022-09-03T08:04:18;100031.63;;;23.35;70.76
59443;BME280;45247;47.466;19.004;2022-09-03T08:06:46;100047.06;;;23.58;75.59
59443;BME280;45247;47.466;19.004;2022-09-03T08:09:15;100036.97;;;23.52;77.97
59443;BME280;45247;47.466;19.004;2022-09-03T08:11:43;100028.38;;;23.56;74.44
59443;BME280;45247;47.466;19.004;2022-09-03T08:14:13;100037.00;;;23.43;70.03
59443;BME280;45247;47.466;19.004;2022-09-03T08:16:43;100034.00;;;23.14;69.30
59443;BME280;45247;47.466;19.004;2022-09-03T08:19:14;100039.38;;;23.22;69.87
59443;BME280;45247;47.466;19.004;2022-09-03T08:21:44;100041.03;;;22.90;73.60
59443;BME280;45247;47.466;19.004;2022-09-03T08:24:16;100045.72;;;22.88;73.84
59443;BME280;45247;47.466;19.004;2022-09-03T08:26:44;100048.47;;;22.96;70.19
59443;BME280;45247;47.466;19.004;2022-09-03T08:29:20;100033.47;;;23.35;71.59
59443;BME280;45247;47.466;19.004;2022-09-03T08:31:48;100032.09;;;23.47;68.90
59443;BME280;45247;47.466;19.004;2022-09-03T08:34:17;100032.06;;;23.55;69.67
59443;BME280;45247;47.466;19.004;2022-09-03T08:36:45;100045.41;;;23.48;68.63
59443;BME280;45247;47.466;19.004;2022-09-03T08:39:14;100048.41;;;23.45;69.79
59443;BME280;45247;47.466;19.004;2022-09-03T08:42:18;100047.38;;;23.71;65.75
59443;BME280;45247;47.466;19.004;2022-09-03T08:44:52;100033.59;;;23.66;67.89
59443;BME280;45247;47.466;19.004;2022-09-03T08:47:25;100044.53;;;23.56;69.49
59443;BME280;45247;47.466;19.004;2022-09-03T08:49:56;100041.69;;;23.49;66.63
59443;BME280;45247;47.466;19.004;2022-09-03T08:52:29;100042.34;;;23.60;69.90
59443;BME280;45247;47.466;19.004;2022-09-03T08:55:08;100038.28;;;23.64;68.09
59443;BME280;45247;47.466;19.004;2022-09-03T08:57:44;100034.28;;;23.60;67.79
59443;BME280;45247;47.466;19.004;2022-09-03T09:00:15;100033.09;;;23.46;65.89
59443;BME280;45247;47.466;19.004;2022-09-03T09:02:54;100036.13;;;23.51;69.97
59443;BME280;45247;47.466;19.004;2022-09-03T09:05:37;100026.19;;;23.60;71.22
59443;BME280;45247;47.466;19.004;2022-09-03T09:08:13;100028.19;;;23.58;72.14
59443;BME280;45247;47.466;19.004;2022-09-03T09:10:46;100036.69;;;23.22;74.14
59443;BME280;45247;47.466;19.004;2022-09-03T09:13:21;100026.25;;;23.11;70.76
59443;BME280;45247;47.466;19.004;2022-09-03T09:16:02;100030.66;;;22.95;73.29
59443;BME280;45247;47.466;19.004;2022-09-03T09:18:42;100020.16;;;23.25;75.79
59443;BME280;45247;47.466;19.004;2022-09-03T09:21:17;100010.06;;;23.43;69.29
59443;BME280;45247;47.466;19.004;2022-09-03T09:23:51;100012.56;;;23.53;70.73
59443;BME280;45247;47.466;19.004;2022-09-03T09:26:22;100022.31;;;23.70;69.67
59443;BME280;45247;47.466;19.004;2022-09-03T09:28:58;100009.63;;;23.87;67.08
59443;BME280;45247;47.466;19.004;2022-09-03T09:31:32;100020.97;;;24.06;66.11
59443;BME280;45247;47.466;19.004;2022-09-03T09:34:03;100018.97;;;24.08;64.73
59443;BME280;45247;47.466;19.004;2022-09-03T09:36:41;99995.97;;;23.89;62.42
59443;BME280;45247;47.466;19.004;2022-09-03T09:39:11;100020.41;;;23.79;61.84
59443;BME280;45247;47.466;19.004;2022-09-03T09:41:42;100016.31;;;23.99;63.53
59443;BME280;45247;47.466;19.004;2022-09-03T09:44:19;100014.16;;;23.87;64.25
59443;BME280;45247;47.466;19.004;2022-09-03T09:46:49;100020.72;;;23.84;60.91
59443;BME280;45247;47.466;19.004;2022-09-03T09:49:32;100011.72;;;23.69;60.67
59443;BME280;45247;47.466;19.004;2022-09-03T09:52:03;100022.06;;;23.88;62.03
59443;BME280;45247;47.466;19.004;2022-09-03T09:54:32;100021.47;;;23.62;62.44
59443;BME280;45247;47.466;19.004;2022-09-03T09:57:02;100016.03;;;23.86;62.00
59443;BME280;45247;47.466;19.004;2022-09-03T09:59:32;100020.97;;;24.06;61.85
59443;BME280;45247;47.466;19.004;2022-09-03T10:02:11;100009.91;;;24.01;58.73
59443;BME280;45247;47.466;19.004;2022-09-03T10:04:48;100015.00;;;23.87;59.67
59443;BME280;45247;47.466;19.004;2022-09-03T10:07:24;100014.75;;;23.49;60.10
59443;BME280;45247;47.466;19.004;2022-09-03T10:10:00;100019.09;;;23.67;61.52
59443;BME280;45247;47.466;19.004;2022-09-03T10:12:31;100016.69;;;23.88;59.38
59443;BME280;45247;47.466;19.004;2022-09-03T10:15:07;100008.50;;;24.13;60.41
59443;BME280;45247;47.466;19.004;2022-09-03T10:17:50;100010.13;;;24.22;61.11
59443;BME280;45247;47.466;19.004;2022-09-03T10:20:25;100005.31;;;24.40;59.10
59443;BME280;45247;47.466;19.004;2022-09-03T10:23:02;100011.69;;;24.47;59.01
59443;BME280;45247;47.466;19.004;2022-09-03T10:25:37;100015.41;;;24.46;56.80
59443;BME280;45247;47.466;19.004;2022-09-03T10:28:08;100005.94;;;24.51;56.05
59443;BME280;45247;47.466;19.004;2022-09-03T10:30:58;100009.28;;;24.53;54.29
59443;BME280;45247;47.466;19.004;2022-09-03T10:33:34;100006.16;;;24.41;54.99
59443;BME280;45247;47.466;19.004;2022-09-03T10:36:11;100004.91;;;24.52;55.08
59443;BME280;45247;47.466;19.004;2022-09-03T10:38:42;100002.13;;;24.68;57.19
59443;BME280;45247;47.466;19.004;2022-09-03T10:41:21;100002.28;;;24.66;57.17
59443;BME280;45247;47.466;19.004;2022-09-03T10:44:14;100006.78;;;24.20;57.37
59443;BME280;45247;47.466;19.004;2022-09-03T10:46:55;99998.41;;;24.46;59.09
59443;BME280;45247;47.466;19.004;2022-09-03T10:49:42;99993.88;;;24.07;56.85
59443;BME280;45247;47.466;19.004;2022-09-03T10:52:24;99993.06;;;24.30;59.96
59443;BME280;45247;47.466;19.004;2022-09-03T10:55:04;99991.16;;;23.68;58.89
59443;BME280;45247;47.466;19.004;2022-09-03T10:57:44;99989.63;;;24.13;56.82
59443;BME280;45247;47.466;19.004;2022-09-03T11:00:14;99989.94;;;24.18;56.22
59443;BME280;45247;47.466;19.004;2022-09-03T11:06:05;99968.06;;;24.67;55.09
59443;BME280;45247;47.466;19.004;2022-09-03T11:08:40;99976.63;;;24.70;55.04
59443;BME280;45247;47.466;19.004;2022-09-03T11:11:13;99972.72;;;24.73;53.34
59443;BME280;45247;47.466;19.004;2022-09-03T11:13:50;99965.88;;;24.85;52.81
59443;BME280;45247;47.466;19.004;2022-09-03T11:16:22;99967.91;;;24.83;50.57
59443;BME280;45247;47.466;19.004;2022-09-03T11:18:53;99979.84;;;24.89;53.08
59443;BME280;45247;47.466;19.004;2022-09-03T11:21:25;99980.56;;;25.06;54.51
59443;BME280;45247;47.466;19.004;2022-09-03T11:24:03;99981.94;;;24.79;54.58
59443;BME280;45247;47.466;19.004;2022-09-03T11:26:35;99984.72;;;24.47;53.76
59443;BME280;45247;47.466;19.004;2022-09-03T11:29:10;99982.38;;;24.13;55.43
59443;BME280;45247;47.466;19.004;2022-09-03T11:31:48;99992.47;;;23.80;56.35
59443;BME280;45247;47.466;19.004;2022-09-03T11:34:29;99993.44;;;23.87;59.01
59443;BME280;45247;47.466;19.004;2022-09-03T11:37:22;99990.81;;;23.63;56.16
59443;BME280;45247;47.466;19.004;2022-09-03T11:40:03;99988.28;;;23.78;56.92
59443;BME280;45247;47.466;19.004;2022-09-03T11:42:35;99980.34;;;24.15;55.18
59443;BME280;45247;47.466;19.004;2022-09-03T11:45:18;99986.59;;;24.16;51.33
59443;BME280;45247;47.466;19.004;2022-09-03T11:47:48;99989.16;;;24.63;53.34
59443;BME280;45247;47.466;19.004;2022-09-03T11:50:20;99971.91;;;24.87;51.48
59443;BME280;45247;47.466;19.004;2022-09-03T11:52:52;99971.59;;;24.67;52.48
59443;BME280;45247;47.466;19.004;2022-09-03T11:55:26;99965.75;;;25.02;53.06
59443;BME280;45247;47.466;19.004;2022-09-03T11:58:11;99979.47;;;25.30;50.42
59443;BME280;45247;47.466;19.004;2022-09-03T12:00:46;99982.00;;;25.61;50.20
59443;BME280;45247;47.466;19.004;2022-09-03T12:03:20;99973.56;;;25.79;50.44
59443;BME280;45247;47.466;19.004;2022-09-03T12:06:07;99980.44;;;25.81;48.67
59443;BME280;45247;47.466;19.004;2022-09-03T12:08:55;99987.81;;;25.87;49.25
59443;BME280;45247;47.466;19.004;2022-09-03T12:11:43;99982.41;;;25.58;46.51
59443;BME280;45247;47.466;19.004;2022-09-03T12:14:21;99988.47;;;25.07;49.63
59443;BME280;45247;47.466;19.004;2022-09-03T12:17:02;99989.66;;;25.05;50.01
59443;BME280;45247;47.466;19.004;2022-09-03T12:19:36;99971.50;;;24.98;49.01
59443;BME280;45247;47.466;19.004;2022-09-03T12:22:12;99970.91;;;25.26;49.40
59443;BME280;45247;47.466;19.004;2022-09-03T12:24:43;99980.16;;;25.46;48.27
59443;BME280;45247;47.466;19.004;2022-09-03T12:27:15;99974.03;;;25.53;50.34
59443;BME280;45247;47.466;19.004;2022-09-03T12:29:53;99969.06;;;25.71;51.13
59443;BME280;45247;47.466;19.004;2022-09-03T12:32:26;99965.53;;;25.56;51.20
59443;BME280;45247;47.466;19.004;2022-09-03T12:35:10;99964.13;;;25.60;48.04
59443;BME280;45247;47.466;19.004;2022-09-03T12:37:41;99957.44;;;25.41;47.64
59443;BME280;45247;47.466;19.004;2022-09-03T12:40:31;99962.75;;;25.49;48.30
59443;BME280;45247;47.466;19.004;2022-09-03T12:43:12;99959.47;;;25.68;47.78
59443;BME280;45247;47.466;19.004;2022-09-03T12:46:00;99966.19;;;25.28;48.15
59443;BME280;45247;47.466;19.004;2022-09-03T12:48:36;99959.94;;;25.57;49.16
59443;BME280;45247;47.466;19.004;2022-09-03T12:51:09;99957.41;;;25.56;48.33
59443;BME280;45247;47.466;19.004;2022-09-03T12:53:58;99961.88;;;25.63;46.98
59443;BME280;45247;47.466;19.004;2022-09-03T12:56:29;99967.00;;;25.14;48.51
59443;BME280;45247;47.466;19.004;2022-09-03T12:59:01;99965.38;;;24.67;49.34
59443;BME280;45247;47.466;19.004;2022-09-03T13:01:32;99963.19;;;24.39;49.61
59443;BME280;45247;47.466;19.004;2022-09-03T13:04:05;99964.22;;;24.38;52.74
59443;BME280;45247;47.466;19.004;2022-09-03T13:06:46;99956.41;;;24.66;51.16
59443;BME280;45247;47.466;19.004;2022-09-03T13:09:20;99963.03;;;25.02;52.17
59443;BME280;45247;47.466;19.004;2022-09-03T13:11:49;99951.00;;;25.27;51.22
59443;BME280;45247;47.466;19.004;2022-09-03T13:14:21;99957.81;;;25.53;50.15
59443;BME280;45247;47.466;19.004;2022-09-03T13:20:02;99949.22;;;25.93;49.28
59443;BME280;45247;47.466;19.004;2022-09-03T13:22:39;99945.13;;;26.19;49.32